createdAt,value
2019-01-11T00:00:22.396Z,17.83
2019-01-11T00:02:55.613Z,12.23
2019-01-11T00:05:27.250Z,11.67
2019-01-11T00:07:58.839Z,15.10
2019-01-11T00:10:30.453Z,17.37
2019-01-11T00:13:02.128Z,11.97
2019-01-11T00:15:33.930Z,10.73
2019-01-11T00:18:05.664Z,9.13
2019-01-11T00:20:37.300Z,9.77
2019-01-11T00:23:09.016Z,10.60
2019-01-11T00:25:40.662Z,8.83
2019-01-11T00:28:12.368Z,9.43
2019-01-11T00:30:43.989Z,9.00
2019-01-11T00:33:15.600Z,12.03
2019-01-11T00:35:47.232Z,12.07
2019-01-11T00:38:19.101Z,8.90
2019-01-11T00:40:50.717Z,10.17
2019-01-11T00:43:22.301Z,8.97
2019-01-11T00:45:54.274Z,9.97
2019-01-11T00:48:25.921Z,9.13
2019-01-11T00:50:57.584Z,9.10
2019-01-11T00:53:29.163Z,9.47
2019-01-11T00:56:00.705Z,7.73
2019-01-11T00:58:32.284Z,10.63
2019-01-11T01:01:03.908Z,9.43
2019-01-11T01:03:35.625Z,6.93
2019-01-11T01:06:07.670Z,7.10
2019-01-11T01:08:39.408Z,10.13
2019-01-11T01:11:11.050Z,6.87
2019-01-11T01:13:42.695Z,8.87
2019-01-11T01:16:14.354Z,9.27
2019-01-11T01:18:45.940Z,7.53
2019-01-11T01:21:17.727Z,6.00
2019-01-11T01:23:49.321Z,8.97
2019-01-11T01:26:20.971Z,6.80
2019-01-11T01:28:52.559Z,7.43
2019-01-11T01:31:24.343Z,8.63
2019-01-11T01:33:56.032Z,7.30
2019-01-11T01:36:27.734Z,7.00
2019-01-11T01:38:59.312Z,9.70
2019-01-11T01:41:30.939Z,9.50
2019-01-11T01:44:02.513Z,10.03
2019-01-11T01:46:34.128Z,9.60
2019-01-11T01:49:05.819Z,6.60
2019-01-11T01:51:37.488Z,8.83
2019-01-11T01:54:09.105Z,11.37
2019-01-11T01:56:40.811Z,12.00
2019-01-11T01:59:12.797Z,9.80
2019-01-11T02:01:45.588Z,11.27
2019-01-11T02:04:17.183Z,8.90
2019-01-11T02:06:48.872Z,9.07
2019-01-11T02:09:20.507Z,12.67
2019-01-11T02:11:52.077Z,9.97
2019-01-11T02:14:23.733Z,12.10
2019-01-11T02:16:55.396Z,13.57
2019-01-11T02:19:32.746Z,11.13
2019-01-11T02:22:00.424Z,13.97
2019-01-11T02:24:32.028Z,11.57
2019-01-11T02:27:03.642Z,11.10
2019-01-11T02:29:35.226Z,13.20
2019-01-11T02:32:06.916Z,11.47
2019-01-11T02:34:38.530Z,11.43
2019-01-11T02:37:10.196Z,13.33
2019-01-11T02:39:41.810Z,13.97
2019-01-11T02:42:13.515Z,15.93
2019-01-11T02:44:45.117Z,14.37
2019-01-11T02:47:17.862Z,10.97
2019-01-11T02:49:49.463Z,12.10
2019-01-11T02:52:22.138Z,10.40
2019-01-11T02:54:53.753Z,12.57
2019-01-11T02:57:25.344Z,14.70
2019-01-11T02:59:57.143Z,13.83
2019-01-11T03:02:33.180Z,14.30
2019-01-11T03:05:05.469Z,10.70
2019-01-11T03:07:37.133Z,10.97
2019-01-11T03:10:14.102Z,14.93
2019-01-11T03:12:45.699Z,11.10
2019-01-11T03:15:17.780Z,12.20
2019-01-11T03:17:49.406Z,10.23
2019-01-11T03:20:21.788Z,9.40
2019-01-11T03:22:53.392Z,9.27
2019-01-11T03:25:24.980Z,11.97
2019-01-11T03:27:56.564Z,15.10
2019-01-11T03:30:28.166Z,15.37
2019-01-11T03:32:59.832Z,14.40
2019-01-11T03:35:31.447Z,11.57
2019-01-11T03:38:03.149Z,10.07
2019-01-11T03:40:34.703Z,12.70
2019-01-11T03:43:06.311Z,15.87
2019-01-11T03:45:38.021Z,17.90
2019-01-11T03:48:09.632Z,27.33
2019-01-11T03:50:41.288Z,44.27
2019-01-11T03:53:12.882Z,65.00
2019-01-11T03:55:44.875Z,110.17
2019-01-11T03:58:17.536Z,80.10
2019-01-11T04:00:49.200Z,45.07
2019-01-11T04:03:20.836Z,26.77
2019-01-11T04:05:52.429Z,28.93
2019-01-11T04:08:24.014Z,35.07
2019-01-11T04:10:55.609Z,28.83
2019-01-11T04:13:30.603Z,22.63
2019-01-11T04:16:00.612Z,17.90
2019-01-11T04:18:33.860Z,13.93
2019-01-11T04:21:05.439Z,16.10
2019-01-11T04:23:37.226Z,23.37
2019-01-11T04:26:08.926Z,16.43
2019-01-11T04:28:40.515Z,15.03
2019-01-11T04:31:12.084Z,13.37
2019-01-11T04:33:43.671Z,13.43
2019-01-11T04:36:15.265Z,15.17
2019-01-11T04:38:46.847Z,11.07
2019-01-11T04:41:18.461Z,10.20
2019-01-11T04:43:50.017Z,16.33
2019-01-11T04:46:21.689Z,13.00
2019-01-11T04:48:53.252Z,10.67
2019-01-11T04:51:24.854Z,12.57
2019-01-11T04:53:56.544Z,11.90
2019-01-11T04:56:28.133Z,10.53
2019-01-11T04:58:59.746Z,12.40
2019-01-11T05:01:31.323Z,14.23
2019-01-11T05:04:02.961Z,15.13
2019-01-11T05:06:34.553Z,13.57
2019-01-11T05:09:08.104Z,11.60
2019-01-11T05:11:39.868Z,12.57
2019-01-11T05:14:11.474Z,9.90
2019-01-11T05:16:43.148Z,11.40
2019-01-11T05:19:14.729Z,11.13
2019-01-11T05:21:46.331Z,11.37
2019-01-11T05:24:18.007Z,11.10
2019-01-11T05:26:49.632Z,14.30
2019-01-11T05:29:21.247Z,9.63
2019-01-11T05:31:52.870Z,14.03
2019-01-11T05:34:24.533Z,12.40
2019-01-11T05:36:56.199Z,12.00
2019-01-11T05:39:27.867Z,12.73
2019-01-11T05:41:59.446Z,9.63
2019-01-11T05:44:31.028Z,12.20
2019-01-11T05:47:02.706Z,12.20
2019-01-11T05:49:34.313Z,11.13
2019-01-11T05:52:05.925Z,10.00
2019-01-11T05:54:37.536Z,13.13
2019-01-11T05:57:09.251Z,13.93
2019-01-11T05:59:40.843Z,12.73
2019-01-11T06:02:12.532Z,15.23
2019-01-11T06:04:53.290Z,12.13
2019-01-11T06:07:31.147Z,13.33
2019-01-11T06:10:03.155Z,11.03
2019-01-11T06:12:35.094Z,8.63
2019-01-11T06:15:07.680Z,11.97
2019-01-11T06:17:39.472Z,8.33
2019-01-11T06:20:15.495Z,12.57
2019-01-11T06:22:47.076Z,11.73
2019-01-11T06:25:18.746Z,11.67
2019-01-11T06:27:50.334Z,12.93
2019-01-11T06:30:22.042Z,15.40
2019-01-11T06:32:53.659Z,13.70
2019-01-11T06:35:25.287Z,13.67
2019-01-11T06:37:57.134Z,12.27
2019-01-11T06:40:28.892Z,14.23
2019-01-11T06:43:03.691Z,16.87
2019-01-11T06:45:33.966Z,9.83
2019-01-11T06:48:07.283Z,9.33
2019-01-11T06:50:38.883Z,8.60
2019-01-11T06:53:10.465Z,9.67
2019-01-11T06:55:42.057Z,9.77
2019-01-11T06:58:16.554Z,9.90
2019-01-11T07:00:48.962Z,9.20
2019-01-11T07:03:21.761Z,10.33
2019-01-11T07:05:53.768Z,11.00
2019-01-11T07:08:25.494Z,6.70
2019-01-11T07:10:57.194Z,9.90
2019-01-11T07:13:28.920Z,9.00
2019-01-11T07:16:00.694Z,12.60
2019-01-11T07:18:32.299Z,13.00
2019-01-11T07:21:04.035Z,10.67
2019-01-11T07:23:35.745Z,10.97
2019-01-11T07:26:07.455Z,12.10
2019-01-11T07:28:39.326Z,12.30
2019-01-11T07:31:12.873Z,10.40
2019-01-11T07:33:44.548Z,8.77
2019-01-11T07:36:41.192Z,14.27
2019-01-11T07:39:31.895Z,11.03
2019-01-11T07:42:08.227Z,9.20
2019-01-11T07:44:39.935Z,8.17
2019-01-11T07:47:11.669Z,9.77
2019-01-11T07:49:43.282Z,10.67
2019-01-11T07:52:15.022Z,12.83
2019-01-11T07:54:46.604Z,10.30
2019-01-11T07:57:18.249Z,9.33
2019-01-11T07:59:49.925Z,10.70
2019-01-11T08:02:21.565Z,12.70
2019-01-11T08:04:53.367Z,13.23
2019-01-11T08:07:25.060Z,13.03
2019-01-11T08:09:56.700Z,10.57
2019-01-11T08:12:28.354Z,10.63
2019-01-11T08:14:59.983Z,8.93
2019-01-11T08:17:31.602Z,10.50
2019-01-11T08:20:03.251Z,16.30
2019-01-11T08:22:40.629Z,11.87
2019-01-11T08:25:13.576Z,12.20
2019-01-11T08:27:45.834Z,13.10
2019-01-11T08:30:17.572Z,10.00
2019-01-11T08:32:49.262Z,16.90
2019-01-11T08:35:20.881Z,11.30
2019-01-11T08:37:52.651Z,11.97
2019-01-11T08:40:24.231Z,16.43
2019-01-11T08:42:55.993Z,11.40
2019-01-11T08:45:27.577Z,12.60
2019-01-11T08:47:59.233Z,12.90
2019-01-11T08:50:31.962Z,11.80
2019-01-11T08:53:03.630Z,14.40
2019-01-11T08:55:35.256Z,13.63
2019-01-11T08:58:06.837Z,14.97
2019-01-11T09:00:38.528Z,11.63
2019-01-11T09:03:10.151Z,13.80
2019-01-11T09:05:41.910Z,18.57
2019-01-11T09:08:13.557Z,15.93
2019-01-11T09:10:47.021Z,19.47
2019-01-11T09:13:19.237Z,13.60
2019-01-11T09:15:50.885Z,15.23
2019-01-11T09:18:45.806Z,16.33
2019-01-11T09:21:17.403Z,15.83
2019-01-11T09:23:50.525Z,19.40
2019-01-11T09:26:22.177Z,16.03
2019-01-11T09:28:53.771Z,13.63
2019-01-11T09:31:25.434Z,15.83
2019-01-11T09:33:57.135Z,14.00
2019-01-11T09:36:30.870Z,16.60
2019-01-11T09:39:02.661Z,22.93
2019-01-11T09:41:35.507Z,17.80
2019-01-11T09:48:20.899Z,14.87
2019-01-11T09:50:52.574Z,17.80
2019-01-11T09:53:25.386Z,14.50
2019-01-11T09:55:57.024Z,14.20
2019-01-11T09:58:28.725Z,14.43
2019-01-11T10:01:00.293Z,15.33
2019-01-11T10:03:31.982Z,17.83
2019-01-11T10:06:03.638Z,18.10
2019-01-11T10:08:35.320Z,20.03
2019-01-11T10:11:07.174Z,15.93
2019-01-11T10:13:38.882Z,18.60
2019-01-11T10:16:10.608Z,15.90
2019-01-11T10:18:42.233Z,18.93
2019-01-11T10:21:14.007Z,16.10
2019-01-11T10:23:45.695Z,16.30
2019-01-11T10:26:18.072Z,16.57
2019-01-11T10:28:51.396Z,17.57
2019-01-11T10:31:23.053Z,16.60
2019-01-11T10:33:54.611Z,18.87
2019-01-11T10:36:26.267Z,18.20
2019-01-11T10:38:57.843Z,18.17
2019-01-11T10:41:29.483Z,19.23
2019-01-11T10:44:01.116Z,17.60
2019-01-11T10:46:37.115Z,18.67
2019-01-11T10:49:08.837Z,18.13
2019-01-11T10:51:40.493Z,23.40
2019-01-11T10:54:20.301Z,22.53
2019-01-11T10:56:51.942Z,23.40
2019-01-11T10:59:23.554Z,20.43
2019-01-11T11:01:55.184Z,18.07
2019-01-11T11:04:26.770Z,17.17
2019-01-11T11:06:58.419Z,19.13
2019-01-11T11:09:30.041Z,17.23
2019-01-11T11:12:01.650Z,23.33
2019-01-11T11:14:33.316Z,21.13
2019-01-11T11:17:05.012Z,16.17
2019-01-11T11:19:36.631Z,16.60
2019-01-11T11:22:08.334Z,22.63
2019-01-11T11:24:39.963Z,22.53
2019-01-11T11:27:11.712Z,18.17
2019-01-11T11:29:43.322Z,18.03
2019-01-11T11:32:16.636Z,19.63
2019-01-11T11:34:48.478Z,20.60
2019-01-11T11:37:20.264Z,19.53
2019-01-11T11:39:52.068Z,16.33
2019-01-11T11:42:26.626Z,19.53
2019-01-11T11:44:58.331Z,22.10
2019-01-11T11:47:30.021Z,22.40
2019-01-11T11:50:01.789Z,20.10
2019-01-11T11:52:34.572Z,21.00
2019-01-11T11:55:07.103Z,18.40
2019-01-11T11:57:38.832Z,20.23
2019-01-11T12:00:14.799Z,17.63
2019-01-11T12:02:47.370Z,25.83
2019-01-11T12:05:19.116Z,18.53
2019-01-11T12:07:50.806Z,20.70
2019-01-11T12:10:23.534Z,18.73
2019-01-11T12:12:55.194Z,19.00
2019-01-11T12:15:26.997Z,22.50
2019-01-11T12:17:58.586Z,19.03
2019-01-11T12:20:35.611Z,19.93
2019-01-11T12:23:07.479Z,18.43
2019-01-11T12:25:39.235Z,18.67
2019-01-11T12:28:10.951Z,17.73
2019-01-11T12:30:42.673Z,17.80
2019-01-11T12:33:14.480Z,17.47
2019-01-11T12:35:46.180Z,18.20
2019-01-11T12:38:17.896Z,18.23
2019-01-11T12:40:49.615Z,15.07
2019-01-11T12:43:21.361Z,17.40
2019-01-11T12:45:52.981Z,17.83
2019-01-11T12:48:24.639Z,16.10
2019-01-11T12:50:56.386Z,14.23
2019-01-11T12:53:28.159Z,15.50
2019-01-11T12:56:00.073Z,17.47
2019-01-11T12:58:31.816Z,17.40
2019-01-11T13:01:03.389Z,20.03
2019-01-11T13:03:35.231Z,16.50
2019-01-11T13:06:06.868Z,19.27
2019-01-11T13:08:38.604Z,20.83
2019-01-11T13:11:10.256Z,18.10
2019-01-11T13:13:41.930Z,16.87
2019-01-11T13:16:13.562Z,18.27
2019-01-11T13:18:45.291Z,18.30
2019-01-11T13:21:17.061Z,15.43
2019-01-11T13:23:48.789Z,21.10
2019-01-11T13:26:20.496Z,14.20
2019-01-11T13:28:52.226Z,16.77
2019-01-11T13:31:23.852Z,13.73
2019-01-11T13:33:55.462Z,16.03
2019-01-11T13:36:27.559Z,15.70
2019-01-11T13:38:59.906Z,16.60
2019-01-11T13:41:31.560Z,14.93
2019-01-11T13:44:03.269Z,15.10
2019-01-11T13:46:34.935Z,18.27
2019-01-11T13:49:06.617Z,21.40
2019-01-11T13:51:38.365Z,14.07
2019-01-11T13:54:10.083Z,16.50
2019-01-11T13:56:41.814Z,16.93
2019-01-11T13:59:13.512Z,16.33
2019-01-11T14:01:45.182Z,16.27
2019-01-11T14:04:16.840Z,15.30
2019-01-11T14:06:49.534Z,14.80
2019-01-11T14:09:21.315Z,15.40
2019-01-11T14:11:52.923Z,18.03
2019-01-11T14:14:24.939Z,16.93
2019-01-11T14:16:56.595Z,16.63
2019-01-11T14:19:28.279Z,15.33
2019-01-11T14:21:59.897Z,17.03
2019-01-11T14:24:31.600Z,13.80
2019-01-11T14:27:03.247Z,14.93
2019-01-11T14:29:34.849Z,15.97
2019-01-11T14:32:06.525Z,20.70
2019-01-11T14:34:38.418Z,18.90
2019-01-11T14:37:10.134Z,16.20
2019-01-11T14:39:41.760Z,17.90
2019-01-11T14:42:13.434Z,15.13
2019-01-11T14:44:45.109Z,14.07
2019-01-11T14:47:16.757Z,16.20
2019-01-11T14:49:48.446Z,14.73
2019-01-11T14:52:20.635Z,14.03
2019-01-11T14:54:52.409Z,15.20
2019-01-11T14:57:23.983Z,12.50
2019-01-11T14:59:55.591Z,12.97
2019-01-11T15:02:27.229Z,17.23
2019-01-11T15:04:58.968Z,14.57
2019-01-11T15:07:30.646Z,15.87
2019-01-11T15:10:02.838Z,14.23
2019-01-11T15:12:34.586Z,13.50
2019-01-11T15:15:07.307Z,17.70
2019-01-11T15:17:39.015Z,14.07
2019-01-11T15:20:16.861Z,13.53
2019-01-11T15:22:48.712Z,13.50
2019-01-11T15:25:20.521Z,13.10
2019-01-11T15:27:52.339Z,17.60
2019-01-11T15:30:23.957Z,10.57
2019-01-11T15:32:55.580Z,14.10
2019-01-11T15:35:27.271Z,10.33
2019-01-11T15:37:58.859Z,10.10
2019-01-11T15:40:36.456Z,12.70
2019-01-11T15:43:05.064Z,9.40
2019-01-11T15:45:40.475Z,10.40
2019-01-11T15:48:19.496Z,8.67
2019-01-11T15:50:58.684Z,9.83
2019-01-11T15:53:37.829Z,11.47
2019-01-11T15:56:12.408Z,9.77
2019-01-11T15:58:44.030Z,13.40
2019-01-11T16:01:15.646Z,9.47
2019-01-11T16:03:47.345Z,9.53
2019-01-11T16:06:25.648Z,10.80
2019-01-11T16:10:03.842Z,14.77
2019-01-11T16:13:01.397Z,10.17
2019-01-11T16:16:25.278Z,10.73
2019-01-11T16:18:58.904Z,10.93
2019-01-11T16:21:30.501Z,12.83
2019-01-11T16:24:02.084Z,14.67
2019-01-11T16:26:33.780Z,11.73
2019-01-11T16:29:05.394Z,11.77
2019-01-11T16:31:36.985Z,12.37
2019-01-11T16:34:09.875Z,12.33
2019-01-11T16:36:41.642Z,11.00
2019-01-11T16:39:13.570Z,12.50
2019-01-11T16:41:45.132Z,11.60
2019-01-11T16:44:16.727Z,11.57
2019-01-11T16:46:48.404Z,10.97
2019-01-11T16:49:19.985Z,9.83
2019-01-11T16:51:51.553Z,11.20
2019-01-11T16:54:23.113Z,9.87
2019-01-11T16:56:54.720Z,12.17
2019-01-11T16:59:26.348Z,12.13
2019-01-11T17:01:57.910Z,10.73
2019-01-11T17:04:29.517Z,10.47
2019-01-11T17:07:01.097Z,9.73
2019-01-11T17:09:32.926Z,12.87
2019-01-11T17:12:04.456Z,10.53
2019-01-11T17:14:36.088Z,8.97
2019-01-11T17:17:07.948Z,10.57
2019-01-11T17:19:39.546Z,12.03
2019-01-11T17:22:12.847Z,9.53
2019-01-11T17:24:44.485Z,10.50
2019-01-11T17:27:16.157Z,10.10
2019-01-11T17:29:47.916Z,9.57
2019-01-11T17:32:22.300Z,12.50
2019-01-11T17:34:53.911Z,13.17
2019-01-11T17:37:25.581Z,12.27
2019-01-11T17:39:57.182Z,11.93
2019-01-11T17:42:28.753Z,13.83
2019-01-11T17:45:00.352Z,14.23
2019-01-11T17:47:31.976Z,11.07
2019-01-11T17:50:03.605Z,14.23
2019-01-11T17:52:35.203Z,11.00
2019-01-11T17:55:07.071Z,12.47
2019-01-11T17:57:38.807Z,10.70
2019-01-11T18:00:14.690Z,10.80
2019-01-11T18:02:46.356Z,11.07
2019-01-11T18:05:18.448Z,10.40
2019-01-11T18:07:50.232Z,11.90
2019-01-11T18:10:21.862Z,10.90
2019-01-11T18:12:53.539Z,13.73
2019-01-11T18:15:25.607Z,8.80
2019-01-11T18:18:00.498Z,12.07
2019-01-11T18:20:32.204Z,12.57
2019-01-11T18:23:06.956Z,13.57
2019-01-11T18:25:37.754Z,24.53
2019-01-11T18:28:09.438Z,21.83
2019-01-11T18:30:41.137Z,17.10
2019-01-11T18:33:12.752Z,13.03
2019-01-11T18:35:44.445Z,13.17
2019-01-11T18:38:16.135Z,12.83
2019-01-11T18:40:47.795Z,12.47
2019-01-11T18:43:19.453Z,15.93
2019-01-11T18:45:51.110Z,13.87
2019-01-11T18:48:22.793Z,13.43
2019-01-11T18:50:55.413Z,13.37
2019-01-11T18:53:27.032Z,14.67
2019-01-11T18:56:05.172Z,12.37
2019-01-11T18:58:31.987Z,15.57
2019-01-11T19:01:03.588Z,13.00
2019-01-11T19:03:35.214Z,14.23
2019-01-11T19:06:06.830Z,15.33
2019-01-11T19:08:40.366Z,13.13
2019-01-11T19:11:12.553Z,15.17
2019-01-11T19:13:44.359Z,18.00
2019-01-11T19:16:15.952Z,15.93
2019-01-11T19:18:47.599Z,13.77
2019-01-11T19:21:19.188Z,16.43
2019-01-11T19:23:50.777Z,15.37
2019-01-11T19:26:22.374Z,13.10
2019-01-11T19:28:53.926Z,14.27
2019-01-11T19:31:26.081Z,13.40
2019-01-11T19:33:57.907Z,14.70
2019-01-11T19:36:29.590Z,13.83
2019-01-11T19:39:07.800Z,14.07
2019-01-11T19:41:39.480Z,14.43
2019-01-11T19:44:11.100Z,11.03
2019-01-11T19:46:42.676Z,13.27
2019-01-11T19:49:14.299Z,12.17
2019-01-11T19:51:45.922Z,15.70
2019-01-11T19:54:17.525Z,13.43
2019-01-11T19:56:49.154Z,13.40
2019-01-11T19:59:21.749Z,13.77
2019-01-11T20:01:54.624Z,15.40
2019-01-11T20:04:26.360Z,16.30
2019-01-11T20:06:58.289Z,15.77
2019-01-11T20:09:30.261Z,14.63
2019-01-11T20:12:01.993Z,13.57
2019-01-11T20:14:33.727Z,15.53
2019-01-11T20:17:05.495Z,14.53
2019-01-11T20:19:38.151Z,15.27
2019-01-11T20:22:09.950Z,14.63
2019-01-11T20:24:41.731Z,15.03
2019-01-11T20:27:13.524Z,13.03
2019-01-11T20:29:45.121Z,13.73
2019-01-11T20:32:16.874Z,14.00
2019-01-11T20:34:48.674Z,12.13
2019-01-11T20:37:27.826Z,15.53
2019-01-11T20:39:59.469Z,16.03
2019-01-11T20:42:31.205Z,18.73
2019-01-11T20:45:02.916Z,17.27
2019-01-11T20:47:34.584Z,17.90
2019-01-11T20:50:08.548Z,18.80
2019-01-11T20:52:40.268Z,14.53
2019-01-11T20:55:11.935Z,17.60
2019-01-11T20:57:43.643Z,20.17
2019-01-11T21:00:35.311Z,20.63
2019-01-11T21:03:09.207Z,23.30
2019-01-11T21:05:42.373Z,19.93
2019-01-11T21:08:13.989Z,19.90
2019-01-11T21:10:45.661Z,21.40
2019-01-11T21:13:17.401Z,19.87
2019-01-11T21:15:49.199Z,22.40
2019-01-11T21:18:20.875Z,23.30
2019-01-11T21:20:53.060Z,26.77
2019-01-11T21:23:24.730Z,25.53
2019-01-11T21:25:56.365Z,27.17
2019-01-11T21:28:29.016Z,24.00
2019-01-11T21:31:00.649Z,26.13
2019-01-11T21:33:33.168Z,23.37
2019-01-11T21:36:04.997Z,20.43
2019-01-11T21:38:36.812Z,24.77
2019-01-11T21:41:08.556Z,19.47
2019-01-11T21:43:40.248Z,17.67
2019-01-11T21:46:12.223Z,19.97
2019-01-11T21:48:43.875Z,21.37
2019-01-11T21:51:15.532Z,16.83
2019-01-11T21:53:47.140Z,18.80
2019-01-11T21:56:18.921Z,17.40
2019-01-11T21:58:50.526Z,19.20
2019-01-11T22:01:22.159Z,20.63
2019-01-11T22:03:53.732Z,16.07
2019-01-11T22:06:25.370Z,20.77
2019-01-11T22:08:57.038Z,20.93
2019-01-11T22:11:28.659Z,16.57
2019-01-11T22:14:00.656Z,18.07
2019-01-11T22:16:32.343Z,19.43
2019-01-11T22:19:07.116Z,22.90
2019-01-11T22:21:38.814Z,25.47
2019-01-11T22:24:10.416Z,24.67
2019-01-11T22:26:42.049Z,21.63
2019-01-11T22:29:13.702Z,18.33
2019-01-11T22:31:45.336Z,22.57
2019-01-11T22:34:16.990Z,19.83
2019-01-11T22:36:48.623Z,17.80
2019-01-11T22:39:20.199Z,20.13
2019-01-11T22:41:55.015Z,20.37
2019-01-11T22:44:26.645Z,19.77
2019-01-11T22:46:58.452Z,17.57
2019-01-11T22:49:30.130Z,14.83
2019-01-11T22:52:01.928Z,18.13
2019-01-11T22:54:43.727Z,16.47
2019-01-11T22:57:16.153Z,18.83
2019-01-11T22:59:47.858Z,18.67
2019-01-11T23:02:49.585Z,20.47
2019-01-11T23:05:21.249Z,18.67
2019-01-11T23:08:03.796Z,20.67
2019-01-11T23:11:52.620Z,22.73
2019-01-11T23:14:24.575Z,14.67
2019-01-11T23:21:07.112Z,19.27
2019-01-11T23:23:38.823Z,21.13
2019-01-11T23:26:22.326Z,22.40
2019-01-11T23:36:22.972Z,17.40
2019-01-11T23:39:25.876Z,20.80
2019-01-11T23:42:38.298Z,23.07
2019-01-11T23:45:49.511Z,21.03
2019-01-11T23:51:25.326Z,23.20
2019-01-11T23:53:56.935Z,23.17
2019-01-11T23:56:28.567Z,22.20
2019-01-11T23:59:00.129Z,22.27
